Oosterhout, Netherlands
Current Conditions -  °F | °C
As of 9:17 AM on Saturday 25 Oct 2014 (Local Time) from EHGR Reporting Station
Haze Haze  
Wind Chill: 55°   Ceiling: 300
Heat Index: 55°   Visibility: 1.1mi
Dew Point: 55°   Wind: 6mph
Humidity: 100%   Direction: 210°SSW
Pressure: 30.03"   Gusts: NA
Location:  51.65°N, 4.86°E
Report Text: EHGR 250717Z AUTO 21005KT 1800 BR OVC003 13/13 Q1017 YLO
Loading
Personal Weather Stations






























Interactive Weather Map
Tropical Storm Tracking
New forecast layout! Learn more

10-Day Weather Forecast

Advertisements
Track Severe Weather on mobile